Time;durP1;ratioP1;P1;durP2;ratioP2;P2;SDS_P1;SDS_P2;PMS_P1;PMS_P2;Temp;Humidity;BMP_temperature;BMP_pressure;BME280_temperature;BME280_humidity;BME280_pressure;Samples;Min_cycle;Max_cycle;Signal;HPM_P1;HPM_P2
2022/06/03 00:01:12;;;;;;;;;;;;;;;17.96;100.00;99706.31;5034639;28;910;-58
2022/06/03 00:03:41;;;;;;;;;;;;;;;17.91;100.00;99710.47;5017120;28;878;-58
2022/06/03 00:06:18;;;;;;;;;;;;;;;17.86;100.00;99710.28;5034757;28;861;-58
2022/06/03 00:08:50;;;;;;;;;;;;;;;17.85;100.00;99705.94;5034473;28;1890;-58
2022/06/03 00:11:34;;;;;;;;;;;;;;;17.89;100.00;99703.78;5034891;28;849;-58
2022/06/03 00:14:20;;;;;;;;;;;;;;;17.94;100.00;99700.41;5034507;28;877;-58
2022/06/03 00:16:51;;;;;;;;;;;;;;;17.98;100.00;99698.25;5034328;28;1136;-58
2022/06/03 00:19:21;;;;;;;;;;;;;;;18.03;100.00;99694.88;5034927;28;870;-58
2022/06/03 00:22:06;;;;;;;;;;;;;;;18.06;100.00;99691.16;5034420;28;944;-58
2022/06/03 00:24:40;;;;;;;;;;;;;;;18.13;100.00;99688.09;5034310;28;889;-58
2022/06/03 00:27:20;;;;;;;;;;;;;;;18.19;100.00;99682.69;5034351;28;783;-58
2022/06/03 00:30:04;;;;;;;;;;;;;;;18.20;100.00;99678.66;5033662;28;1944;-58
2022/06/03 00:32:31;;;;;;;;;;;;;;;18.18;100.00;99681.16;5034115;28;949;-58
2022/06/03 00:34:58;;;;;;;;;;;;;;;18.18;100.00;99675.53;5034089;28;940;-58
2022/06/03 00:37:25;;;;;;;;;;;;;;;18.24;100.00;99682.09;5034147;28;803;-58
2022/06/03 00:39:58;;;;;;;;;;;;;;;18.20;100.00;99684.25;5034004;28;803;-58
2022/06/03 00:42:28;;;;;;;;;;;;;;;18.05;100.00;99689.63;5034484;28;842;-58
2022/06/03 00:45:00;;;;;;;;;;;;;;;17.92;100.00;99694.47;5033964;28;894;-58
2022/06/03 00:47:43;;;;;;;;;;;;;;;17.87;100.00;99698.66;5033833;28;1969;-58
2022/06/03 00:50:09;;;;;;;;;;;;;;;17.80;100.00;99698.88;5033801;28;1016;-58
2022/06/03 00:52:51;;;;;;;;;;;;;;;17.76;100.00;99706.63;5033922;28;830;-58
2022/06/03 00:55:18;;;;;;;;;;;;;;;17.67;100.00;99704.53;5033989;28;783;-58
2022/06/03 00:57:51;;;;;;;;;;;;;;;17.65;100.00;99709.03;5033936;28;827;-58
2022/06/03 01:00:38;;;;;;;;;;;;;;;17.63;100.00;99697.50;5033433;28;787;-58
2022/06/03 01:03:14;;;;;;;;;;;;;;;17.63;100.00;99698.28;4993534;28;1301;-58
2022/06/03 01:05:53;;;;;;;;;;;;;;;17.66;100.00;99702.97;5033601;28;811;-58
2022/06/03 01:08:25;;;;;;;;;;;;;;;17.72;100.00;99698.34;5033909;28;1948;-58
2022/06/03 01:11:10;;;;;;;;;;;;;;;17.76;100.00;99706.63;5033696;28;894;-58
2022/06/03 01:13:37;;;;;;;;;;;;;;;17.71;100.00;99702.41;5033440;28;838;-59
2022/06/03 01:16:22;;;;;;;;;;;;;;;17.56;100.00;99701.34;5033167;28;926;-58
2022/06/03 01:18:52;;;;;;;;;;;;;;;17.40;100.00;99712.69;5033505;28;1174;-58
2022/06/03 01:21:22;;;;;;;;;;;;;;;17.24;100.00;99717.19;5033331;28;870;-58
2022/06/03 01:23:48;;;;;;;;;;;;;;;17.06;100.00;99720.56;5033168;28;889;-59
2022/06/03 01:26:15;;;;;;;;;;;;;;;16.86;100.00;99715.22;5033256;28;787;-58
2022/06/03 01:28:54;;;;;;;;;;;;;;;16.66;100.00;99709.06;5033192;28;1941;-58
2022/06/03 01:31:22;;;;;;;;;;;;;;;16.49;100.00;99711.97;5032943;28;1562;-58
2022/06/03 01:34:07;;;;;;;;;;;;;;;16.37;100.00;99703.59;5032940;28;918;-58
2022/06/03 01:36:43;;;;;;;;;;;;;;;16.26;100.00;99715.84;5032959;28;806;-58
2022/06/03 01:39:12;;;;;;;;;;;;;;;16.21;100.00;99718.41;5032953;28;913;-58
2022/06/03 01:41:51;;;;;;;;;;;;;;;16.16;100.00;99713.38;5032748;28;926;-58
2022/06/03 01:44:18;;;;;;;;;;;;;;;16.15;100.00;99720.16;5032660;28;847;-58
2022/06/03 01:47:05;;;;;;;;;;;;;;;16.14;100.00;99713.81;5032610;28;995;-58
2022/06/03 01:49:31;;;;;;;;;;;;;;;16.11;100.00;99718.28;5032717;28;1906;-58
2022/06/03 01:52:22;;;;;;;;;;;;;;;16.10;100.00;99722.28;5032520;28;874;-58
2022/06/03 01:54:48;;;;;;;;;;;;;;;16.11;100.00;99720.28;5032588;28;2044;-58
2022/06/03 01:57:26;;;;;;;;;;;;;;;16.09;100.00;99717.94;5032470;28;914;-58
2022/06/03 02:00:03;;;;;;;;;;;;;;;16.09;100.00;99731.09;5032566;28;819;-58
2022/06/03 02:02:37;;;;;;;;;;;;;;;16.07;100.00;99730.75;5032649;28;870;-58
2022/06/03 02:05:22;;;;;;;;;;;;;;;16.06;100.00;99738.31;5032446;28;834;-58
2022/06/03 02:08:09;;;;;;;;;;;;;;;16.12;100.00;99747.69;5033019;28;1963;-58
2022/06/03 02:10:54;;;;;;;;;;;;;;;16.14;100.00;99736.13;5032085;28;1714;-58
2022/06/03 02:13:43;;;;;;;;;;;;;;;16.08;100.00;99735.09;5031931;28;957;-58
2022/06/03 02:16:09;;;;;;;;;;;;;;;16.07;100.00;99736.34;5032259;28;1086;-58
2022/06/03 02:18:36;;;;;;;;;;;;;;;16.08;100.00;99732.31;5032157;28;878;-58
2022/06/03 02:21:09;;;;;;;;;;;;;;;16.00;100.00;99747.66;5032214;28;830;-58
2022/06/03 02:23:36;;;;;;;;;;;;;;;15.96;100.00;99741.41;5032183;28;787;-58
2022/06/03 02:26:12;;;;;;;;;;;;;;;15.95;100.00;99740.63;5032318;28;850;-58
2022/06/03 02:30:24;;;;;;;;;;;;;;;15.94;100.00;99753.00;5032116;28;1918;-58
2022/06/03 02:32:04;;;;;;;;;;;;;;;15.95;100.00;99751.78;5031394;28;1309;-58
2022/06/03 02:34:49;;;;;;;;;;;;;;;15.99;100.00;99755.25;5031951;28;818;-58
2022/06/03 02:37:35;;;;;;;;;;;;;;;16.01;100.00;99766.75;5031905;28;838;-57
2022/06/03 02:40:04;;;;;;;;;;;;;;;16.07;100.00;99759.41;5032057;28;898;-58
2022/06/03 02:42:40;;;;;;;;;;;;;;;16.11;100.00;99776.81;5031662;28;843;-58
2022/06/03 02:45:20;;;;;;;;;;;;;;;16.10;100.00;99778.03;5031839;28;857;-58
2022/06/03 02:47:50;;;;;;;;;;;;;;;16.08;100.00;99766.53;5031692;28;1964;-58
2022/06/03 02:50:20;;;;;;;;;;;;;;;16.11;100.00;99768.47;5031736;28;905;-58
2022/06/03 02:52:59;;;;;;;;;;;;;;;16.15;100.00;99770.34;5031590;28;1039;-58
2022/06/03 02:55:42;;;;;;;;;;;;;;;16.11;100.00;99771.25;5031876;28;800;-58
2022/06/03 02:58:11;;;;;;;;;;;;;;;16.15;100.00;99773.13;5031959;28;822;-58
2022/06/03 03:00:38;;;;;;;;;;;;;;;16.16;100.00;99794.25;5031480;28;886;-58
2022/06/03 03:03:41;;;;;;;;;;;;;;;16.21;100.00;99797.25;5031563;28;874;-58
2022/06/03 03:06:27;;;;;;;;;;;;;;;16.29;100.00;99793.03;5031537;28;811;-58
2022/06/03 03:09:11;;;;;;;;;;;;;;;16.36;100.00;99789.25;5031382;28;1882;-58
2022/06/03 03:11:56;;;;;;;;;;;;;;;16.45;100.00;99794.19;5031725;28;818;-58
2022/06/03 03:14:34;;;;;;;;;;;;;;;16.48;100.00;99798.91;5031391;28;827;-58
2022/06/03 03:17:09;;;;;;;;;;;;;;;16.56;100.00;99805.84;5031627;28;1051;-58
2022/06/03 03:19:45;;;;;;;;;;;;;;;16.75;100.00;99806.88;5031549;28;838;-58
2022/06/03 03:22:25;;;;;;;;;;;;;;;16.95;100.00;99806.69;5031411;28;845;-58
2022/06/03 03:25:10;;;;;;;;;;;;;;;17.09;100.00;99811.03;5033395;28;795;-58
2022/06/03 03:27:55;;;;;;;;;;;;;;;17.14;100.00;99813.28;5035331;28;1886;-58
2022/06/03 03:30:29;;;;;;;;;;;;;;;17.17;100.00;99803.22;5034974;28;1235;-58
2022/06/03 03:33:03;;;;;;;;;;;;;;;17.27;100.00;99810.47;5035324;28;846;-58
2022/06/03 03:35:45;;;;;;;;;;;;;;;17.39;100.00;99814.47;5035254;28;838;-58
2022/06/03 03:38:30;;;;;;;;;;;;;;;17.49;100.00;99807.75;5035163;28;795;-58
2022/06/03 03:41:18;;;;;;;;;;;;;;;17.70;100.00;99806.25;5035463;28;877;-58
2022/06/03 03:43:47;;;;;;;;;;;;;;;17.98;100.00;99810.09;5035181;28;901;-58
2022/06/03 03:46:19;;;;;;;;;;;;;;;18.24;100.00;99804.38;5035099;28;858;-59
2022/06/03 03:49:14;;;;;;;;;;;;;;;18.45;100.00;99803.59;5017088;28;1910;-58
2022/06/03 03:51:44;;;;;;;;;;;;;;;18.75;100.00;99801.28;5034871;28;866;-58
2022/06/03 03:54:29;;;;;;;;;;;;;;;19.08;100.00;99798.06;5034799;28;801;-59
2022/06/03 03:57:01;;;;;;;;;;;;;;;19.47;100.00;99801.28;5034834;28;831;-58
2022/06/03 03:59:48;;;;;;;;;;;;;;;19.85;100.00;99802.91;5035184;28;870;-58
2022/06/03 04:02:34;;;;;;;;;;;;;;;20.19;100.00;99799.78;5034961;28;822;-58
2022/06/03 04:05:19;;;;;;;;;;;;;;;20.50;100.00;99792.41;5034669;28;835;-58
2022/06/03 04:07:45;;;;;;;;;;;;;;;20.77;99.44;99785.97;5034532;28;1942;-58
2022/06/03 04:10:36;;;;;;;;;;;;;;;21.01;95.86;99783.97;5034618;28;823;-58
2022/06/03 04:13:06;;;;;;;;;;;;;;;21.25;91.88;99774.84;5034473;28;803;-58
2022/06/03 04:15:56;;;;;;;;;;;;;;;21.39;89.40;99768.50;5034767;28;858;-57
2022/06/03 04:18:40;;;;;;;;;;;;;;;21.53;88.09;99769.03;5035211;28;779;-58
2022/06/03 04:21:26;;;;;;;;;;;;;;;21.63;87.18;99762.09;5034310;28;877;-58
2022/06/03 04:24:08;;;;;;;;;;;;;;;21.79;86.17;99766.53;5034374;28;802;-58
2022/06/03 04:26:52;;;;;;;;;;;;;;;21.98;84.57;99772.78;5034305;28;897;-58
2022/06/03 04:29:39;;;;;;;;;;;;;;;22.18;83.32;99772.91;5034500;28;1969;-58
2022/06/03 04:32:24;;;;;;;;;;;;;;;22.37;81.69;99784.00;4994921;28;819;-58
2022/06/03 04:35:13;;;;;;;;;;;;;;;22.53;79.69;99780.72;4994895;28;842;-58
2022/06/03 04:37:58;;;;;;;;;;;;;;;22.67;78.38;99779.16;4994699;28;2267;-58
2022/06/03 04:40:43;;;;;;;;;;;;;;;22.73;77.54;99780.03;4995036;28;901;-58
2022/06/03 04:43:16;;;;;;;;;;;;;;;22.81;77.17;99774.78;4994640;28;823;-57
2022/06/03 04:46:01;;;;;;;;;;;;;;;22.88;76.15;99790.50;4994766;28;807;-58
2022/06/03 04:48:47;;;;;;;;;;;;;;;22.94;75.58;99792.16;4994940;28;1969;-58
2022/06/03 04:51:20;;;;;;;;;;;;;;;23.05;75.25;99797.19;4994537;28;819;-58
2022/06/03 04:53:46;;;;;;;;;;;;;;;23.12;73.63;99790.38;4994430;28;890;-58
2022/06/03 04:56:19;;;;;;;;;;;;;;;23.17;71.75;99795.31;4994750;28;810;-57
2022/06/03 04:59:07;;;;;;;;;;;;;;;23.23;72.32;99794.13;4994339;28;847;-58
2022/06/03 05:01:33;;;;;;;;;;;;;;;23.28;71.33;99784.22;4994311;28;1017;-57
2022/06/03 05:04:15;;;;;;;;;;;;;;;23.35;71.47;99788.66;4994421;28;807;-57
2022/06/03 05:07:00;;;;;;;;;;;;;;;23.47;71.55;99792.41;4994565;28;890;-57
2022/06/03 05:09:46;;;;;;;;;;;;;;;23.56;70.24;99786.66;4994138;28;1956;-57
2022/06/03 05:12:31;;;;;;;;;;;;;;;23.68;68.61;99791.13;4994295;28;814;-57
2022/06/03 05:15:00;;;;;;;;;;;;;;;23.84;67.82;99799.06;4992775;28;905;-58
2022/06/03 05:17:39;;;;;;;;;;;;;;;24.03;67.12;99799.56;4994062;28;802;-58
2022/06/03 05:20:07;;;;;;;;;;;;;;;24.29;66.41;99803.69;4993992;28;794;-57
2022/06/03 05:22:52;;;;;;;;;;;;;;;24.59;64.75;99810.66;4994238;28;807;-57
2022/06/03 05:25:26;;;;;;;;;;;;;;;24.78;62.91;99802.59;4993899;28;830;-58
2022/06/03 05:53:44;;;;;;;;;;;;;;;27.03;55.29;99808.38;4993999;28;638;-57
2022/06/03 05:56:35;;;;;;;;;;;;;;;27.54;53.38;99819.66;4993272;28;855;-57
2022/06/03 05:59:16;;;;;;;;;;;;;;;27.82;52.25;99822.41;4993581;28;870;-57
2022/06/03 06:04:59;;;;;;;;;;;;;;;27.96;52.49;99834.00;4993607;28;676;-57
2022/06/03 06:07:28;;;;;;;;;;;;;;;28.40;50.39;99849.25;4993031;28;938;-58
2022/06/03 06:10:15;;;;;;;;;;;;;;;28.84;49.49;99847.44;4992858;28;1930;-58
2022/06/03 06:12:46;;;;;;;;;;;;;;;29.23;48.46;99852.03;4992855;28;1328;-57
2022/06/03 06:15:34;;;;;;;;;;;;;;;29.47;48.32;99846.38;4992946;28;890;-58
2022/06/03 06:18:07;;;;;;;;;;;;;;;29.86;47.89;99839.47;4992950;28;882;-57
2022/06/03 06:20:52;;;;;;;;;;;;;;;30.12;46.32;99836.00;4993128;28;827;-58
2022/06/03 06:23:20;;;;;;;;;;;;;;;30.22;44.80;99830.72;4993086;28;808;-58
2022/06/03 06:25:59;;;;;;;;;;;;;;;30.40;42.80;99832.03;4993022;28;874;-58
2022/06/03 06:28:44;;;;;;;;;;;;;;;30.38;44.03;99840.34;4992700;28;1890;-57
2022/06/03 06:31:19;;;;;;;;;;;;;;;30.51;43.71;99842.50;4992746;28;871;-58
2022/06/03 06:34:15;;;;;;;;;;;;;;;30.85;43.62;99833.41;4992680;28;815;-58
2022/06/03 06:37:01;;;;;;;;;;;;;;;30.89;42.68;99846.06;4983995;28;1781;-57
2022/06/03 06:39:46;;;;;;;;;;;;;;;30.95;43.06;99853.78;5018208;28;1320;-57
2022/06/03 06:42:32;;;;;;;;;;;;;;;30.77;43.67;99850.41;5014218;28;871;-58
2022/06/03 06:45:16;;;;;;;;;;;;;;;31.51;43.05;99844.22;5031812;28;838;-58
2022/06/03 06:47:52;;;;;;;;;;;;;;;31.87;41.19;99835.97;5031880;28;1972;-57
2022/06/03 06:50:22;;;;;;;;;;;;;;;31.76;39.35;99835.44;5032099;28;851;-60
2022/06/03 06:52:52;;;;;;;;;;;;;;;31.60;39.81;99835.25;5031746;28;838;-58
2022/06/03 06:55:22;;;;;;;;;;;;;;;31.65;39.48;99834.34;5031652;28;788;-57
2022/06/03 06:57:50;;;;;;;;;;;;;;;31.50;39.98;99834.91;5031707;28;854;-58
2022/06/03 07:00:46;;;;;;;;;;;;;;;31.55;40.48;99836.09;5030752;28;858;-58
2022/06/03 07:03:17;;;;;;;;;;;;;;;31.19;40.73;99824.28;5014973;28;1401;-58
2022/06/03 07:05:57;;;;;;;;;;;;;;;31.85;40.09;99830.03;5031519;28;815;-58
2022/06/03 07:08:28;;;;;;;;;;;;;;;32.72;39.54;99825.56;5013618;28;1886;-57
2022/06/03 07:11:06;;;;;;;;;;;;;;;32.85;39.01;99836.16;5013911;28;1303;-58
2022/06/03 07:13:32;;;;;;;;;;;;;;;32.75;40.04;99833.00;5031381;28;898;-58
2022/06/03 07:16:02;;;;;;;;;;;;;;;33.46;38.99;99839.53;5031431;28;838;-58
2022/06/03 07:21:33;;;;;;;;;;;;;;;33.81;37.97;99834.41;5031796;28;613;-57
2022/06/03 07:24:14;;;;;;;;;;;;;;;33.06;39.02;99827.56;5031418;28;834;-57
2022/06/03 07:26:43;;;;;;;;;;;;;;;32.40;41.17;99826.53;5031481;28;831;-58
2022/06/03 07:29:30;;;;;;;;;;;;;;;32.44;39.92;99823.34;5031575;28;1894;-58
2022/06/03 07:32:02;;;;;;;;;;;;;;;32.26;40.56;99788.66;5031342;28;1737;-58
2022/06/03 07:34:37;;;;;;;;;;;;;;;32.17;40.87;99814.84;5031377;28;901;-58
2022/06/03 07:37:06;;;;;;;;;;;;;;;31.73;40.98;99803.03;5031216;28;839;-58
2022/06/03 07:39:44;;;;;;;;;;;;;;;31.89;42.34;99801.13;5030873;28;1173;-58
2022/06/03 07:42:16;;;;;;;;;;;;;;;31.90;40.39;99803.44;5031118;28;962;-58
2022/06/03 07:44:45;;;;;;;;;;;;;;;31.54;39.59;99803.94;5031442;28;830;-57
2022/06/03 07:47:15;;;;;;;;;;;;;;;30.98;40.95;99787.81;5031139;28;899;-59
2022/06/03 07:49:44;;;;;;;;;;;;;;;31.08;40.50;99811.75;5031011;28;1969;-57
2022/06/03 07:52:19;;;;;;;;;;;;;;;30.86;41.71;99800.72;5031141;28;842;-57
2022/06/03 07:54:51;;;;;;;;;;;;;;;30.47;42.36;99817.16;5031125;28;804;-58
2022/06/03 08:00:20;;;;;;;;;;;;;;;30.89;41.15;99800.41;5031393;28;609;-57
2022/06/03 08:03:06;;;;;;;;;;;;;;;30.77;41.75;99809.69;5013263;28;846;-57
2022/06/03 08:05:33;;;;;;;;;;;;;;;31.22;43.38;99803.25;5031543;28;893;-58
2022/06/03 08:10:56;;;;;;;;;;;;;;;32.39;40.28;99815.63;5032900;28;692;-58
2022/06/03 08:13:24;;;;;;;;;;;;;;;32.63;39.91;99829.66;5034463;28;867;-57
2022/06/03 08:15:53;;;;;;;;;;;;;;;33.07;40.82;99844.19;5034503;28;874;-57
2022/06/03 08:18:21;;;;;;;;;;;;;;;33.64;38.19;99865.63;5034518;28;799;-58
2022/06/03 08:23:52;;;;;;;;;;;;;;;33.65;38.68;99881.50;5034486;28;701;-57
2022/06/03 08:26:21;;;;;;;;;;;;;;;33.00;39.15;99890.66;5034254;28;855;-57
2022/06/03 08:28:50;;;;;;;;;;;;;;;33.00;39.70;99895.63;5034299;28;1890;-57
2022/06/03 08:31:19;;;;;;;;;;;;;;;33.55;39.85;99902.03;5034309;28;866;-58
2022/06/03 08:33:51;;;;;;;;;;;;;;;33.95;39.48;99901.00;5034190;28;873;-57
2022/06/03 08:36:22;;;;;;;;;;;;;;;34.01;39.02;99884.38;5034052;28;866;-58
2022/06/03 08:38:52;;;;;;;;;;;;;;;33.71;39.49;99888.63;5033972;28;1277;-58
2022/06/03 08:41:30;;;;;;;;;;;;;;;33.93;38.89;99881.47;5034142;28;819;-58
2022/06/03 08:44:15;;;;;;;;;;;;;;;34.42;38.87;99884.75;5034079;28;874;-58
2022/06/03 08:46:49;;;;;;;;;;;;;;;34.21;38.15;99876.28;5033998;28;886;-57
2022/06/03 08:49:23;;;;;;;;;;;;;;;34.10;37.78;99872.38;5034126;28;1969;-58
2022/06/03 08:51:52;;;;;;;;;;;;;;;34.48;40.30;99879.59;5034060;28;939;-58
2022/06/03 08:54:19;;;;;;;;;;;;;;;34.93;38.08;99878.19;5033879;28;843;-58
2022/06/03 08:56:48;;;;;;;;;;;;;;;34.82;36.77;99893.69;5033853;28;901;-58
2022/06/03 08:59:14;;;;;;;;;;;;;;;34.46;37.48;99896.63;5033957;28;882;-58
2022/06/03 09:01:41;;;;;;;;;;;;;;;33.64;37.42;99897.91;5033773;28;786;-58
2022/06/03 09:04:16;;;;;;;;;;;;;;;33.67;40.31;99893.16;5033722;28;794;-58
2022/06/03 09:06:46;;;;;;;;;;;;;;;34.40;40.80;99896.03;5033739;28;823;-57
2022/06/03 09:09:25;;;;;;;;;;;;;;;34.82;38.68;99907.28;5033542;28;1886;-58
2022/06/03 09:12:10;;;;;;;;;;;;;;;34.81;39.01;99911.50;5033451;28;941;-58
2022/06/03 09:14:40;;;;;;;;;;;;;;;34.39;39.06;99903.88;5033356;28;874;-58
2022/06/03 09:17:24;;;;;;;;;;;;;;;34.37;38.99;99903.66;5033369;28;933;-57
2022/06/03 09:19:54;;;;;;;;;;;;;;;33.76;39.77;99886.94;5033290;28;911;-58
2022/06/03 09:22:23;;;;;;;;;;;;;;;33.73;39.72;99888.03;5032411;28;826;-57
2022/06/03 09:24:50;;;;;;;;;;;;;;;33.79;40.33;99894.38;5033341;28;814;-58
2022/06/03 09:27:17;;;;;;;;;;;;;;;33.63;40.15;99898.47;5033142;28;915;-58
2022/06/03 09:29:54;;;;;;;;;;;;;;;33.78;41.30;99892.88;5033512;28;1882;-58
2022/06/03 09:32:21;;;;;;;;;;;;;;;33.82;41.96;99893.28;5033335;28;1301;-58
2022/06/03 09:34:51;;;;;;;;;;;;;;;33.44;41.89;99902.34;5033140;28;890;-58
2022/06/03 09:37:31;;;;;;;;;;;;;;;33.36;41.00;99905.13;5033045;28;939;-58
2022/06/03 09:39:59;;;;;;;;;;;;;;;32.93;42.15;99906.44;5032658;28;1260;-58
2022/06/03 09:42:28;;;;;;;;;;;;;;;32.90;43.03;99913.31;5032920;28;811;-58
2022/06/03 09:45:01;;;;;;;;;;;;;;;32.71;43.60;99912.69;5033384;28;826;-58
2022/06/03 09:47:29;;;;;;;;;;;;;;;32.37;43.10;99915.53;5033037;28;966;-59
2022/06/03 09:49:56;;;;;;;;;;;;;;;32.29;44.44;99915.44;5015135;28;1934;-58
2022/06/03 09:52:24;;;;;;;;;;;;;;;32.29;45.06;99924.78;5032704;28;882;-58
2022/06/03 09:54:51;;;;;;;;;;;;;;;31.81;44.90;99917.41;5032676;28;802;-58
2022/06/03 09:57:31;;;;;;;;;;;;;;;31.72;46.21;99922.25;5032604;28;815;-58
2022/06/03 10:00:08;;;;;;;;;;;;;;;32.03;45.13;99916.22;5032557;28;830;-58
2022/06/03 10:31:04;;;;;;;;;;;;;;;31.33;46.46;99892.28;5121729;22;1715;-57
2022/06/03 10:33:30;;;;;;;;;;;;;;;31.18;46.80;99882.72;5031938;28;888;-56
2022/06/03 10:36:01;;;;;;;;;;;;;;;31.07;46.32;99895.09;5031988;28;857;-56
2022/06/03 10:38:30;;;;;;;;;;;;;;;31.06;45.94;99880.03;5031842;28;893;-58
2022/06/03 10:40:56;;;;;;;;;;;;;;;30.98;46.23;99875.50;5031817;28;894;-57
2022/06/03 10:43:25;;;;;;;;;;;;;;;31.39;47.13;99877.94;5032149;28;897;-57
2022/06/03 10:45:51;;;;;;;;;;;;;;;31.37;45.89;99874.84;5031750;28;882;-57
2022/06/03 10:48:29;;;;;;;;;;;;;;;31.53;45.94;99868.06;5031642;28;1906;-57
2022/06/03 10:51:12;;;;;;;;;;;;;;;32.32;47.10;99880.78;5014171;28;1287;-58
2022/06/03 11:08:58;;;;;;;;;;;;;;;33.61;42.63;99918.31;5031847;28;1898;-57
2022/06/03 11:11:36;;;;;;;;;;;;;;;33.61;40.47;99912.59;5031745;28;830;-57
2022/06/03 11:14:21;;;;;;;;;;;;;;;32.68;41.45;99917.44;5031468;28;819;-57
2022/06/03 11:17:06;;;;;;;;;;;;;;;32.46;42.87;99912.22;5031554;28;846;-57
2022/06/03 11:19:34;;;;;;;;;;;;;;;32.99;42.52;99909.19;5031537;28;834;-57
2022/06/03 11:22:18;;;;;;;;;;;;;;;32.10;43.69;99909.84;5031390;28;878;-58
2022/06/03 11:24:49;;;;;;;;;;;;;;;31.39;45.38;99909.34;5031750;28;830;-57
2022/06/03 11:27:17;;;;;;;;;;;;;;;32.37;44.47;99902.00;5031400;28;798;-57
2022/06/03 11:29:44;;;;;;;;;;;;;;;33.06;42.83;99902.00;5031190;28;1894;-57
2022/06/03 11:32:13;;;;;;;;;;;;;;;33.65;41.88;99898.69;5031395;28;814;-56
2022/06/03 11:34:50;;;;;;;;;;;;;;;33.93;40.55;99904.41;5031234;28;839;-57
2022/06/03 11:37:23;;;;;;;;;;;;;;;33.09;41.74;99907.38;5031274;28;790;-58
2022/06/03 11:39:52;;;;;;;;;;;;;;;32.74;41.95;99912.38;5031535;28;1050;-57
2022/06/03 11:42:27;;;;;;;;;;;;;;;32.92;42.29;99902.06;5031114;28;926;-57
2022/06/03 11:45:11;;;;;;;;;;;;;;;33.94;41.89;99897.34;5031563;28;871;-57
2022/06/03 11:47:56;;;;;;;;;;;;;;;34.97;39.77;99910.16;5035086;28;886;-57
2022/06/03 11:50:25;;;;;;;;;;;;;;;34.35;40.32;99903.47;5035055;28;846;-58
2022/06/03 11:52:52;;;;;;;;;;;;;;;33.08;42.41;99919.41;5034983;28;854;-57
2022/06/03 11:55:24;;;;;;;;;;;;;;;31.43;44.32;99917.59;5035197;28;898;-57
2022/06/03 11:57:57;;;;;;;;;;;;;;;30.18;46.92;99910.06;5034889;28;819;-57
2022/06/03 12:00:26;;;;;;;;;;;;;;;30.11;48.28;99916.38;5034724;28;898;-58
2022/06/03 12:03:15;;;;;;;;;;;;;;;32.12;46.11;99902.25;5034758;28;910;-57
2022/06/03 12:05:55;;;;;;;;;;;;;;;33.81;42.16;99888.09;5034731;28;878;-57
2022/06/03 12:08:45;;;;;;;;;;;;;;;35.07;39.06;99890.28;5016888;28;1910;-58
2022/06/03 12:14:33;;;;;;;;;;;;;;;36.13;36.83;99911.66;5034891;28;641;-58
2022/06/03 12:17:22;;;;;;;;;;;;;;;34.49;38.75;99898.38;5034577;28;799;-58
2022/06/03 12:19:50;;;;;;;;;;;;;;;32.02;42.61;99906.13;5034324;28;1338;-58
2022/06/03 12:22:16;;;;;;;;;;;;;;;30.79;44.51;99892.63;5034559;28;857;-57
2022/06/03 12:24:44;;;;;;;;;;;;;;;32.38;43.20;99888.47;5034633;28;873;-57
2022/06/03 12:27:14;;;;;;;;;;;;;;;34.14;40.26;99894.97;5034206;28;912;-58
2022/06/03 12:29:44;;;;;;;;;;;;;;;35.12;38.62;99887.22;5033890;28;1947;-58
2022/06/03 12:32:39;;;;;;;;;;;;;;;35.62;36.83;99875.31;5034313;28;878;-57
2022/06/03 12:35:24;;;;;;;;;;;;;;;35.89;37.26;99887.19;5031002;28;1380;-57
2022/06/03 12:38:11;;;;;;;;;;;;;;;36.34;35.82;99879.75;5034280;28;837;-57
2022/06/03 12:40:38;;;;;;;;;;;;;;;36.83;35.60;99879.66;5034014;28;1661;-58
2022/06/03 12:43:21;;;;;;;;;;;;;;;37.23;34.87;99885.31;5034041;28;938;-58
2022/06/03 12:45:58;;;;;;;;;;;;;;;37.52;34.02;99885.63;5034024;28;787;-58
2022/06/03 12:48:46;;;;;;;;;;;;;;;37.77;33.48;99876.19;5034114;28;1973;-58
2022/06/03 12:51:21;;;;;;;;;;;;;;;37.70;33.61;99877.78;5034240;28;853;-58
2022/06/03 12:53:49;;;;;;;;;;;;;;;37.34;33.20;99881.19;5034057;28;879;-57
2022/06/03 12:56:35;;;;;;;;;;;;;;;37.37;33.42;99863.50;5033259;28;866;-58
2022/06/03 12:59:08;;;;;;;;;;;;;;;37.58;33.99;99879.66;5033613;28;2054;-58
2022/06/03 13:01:43;;;;;;;;;;;;;;;37.28;34.03;99872.03;5033704;28;893;-58
2022/06/03 13:04:36;;;;;;;;;;;;;;;36.76;33.27;99866.84;5034001;28;807;-58
2022/06/03 13:07:14;;;;;;;;;;;;;;;36.94;34.11;99870.56;5033533;28;934;-58
2022/06/03 13:10:10;;;;;;;;;;;;;;;37.90;33.90;99863.56;5033449;28;2017;-58
2022/06/03 13:12:37;;;;;;;;;;;;;;;39.03;32.73;99856.06;5016499;28;1516;-58
2022/06/03 13:15:23;;;;;;;;;;;;;;;38.77;32.11;99861.25;5033701;28;787;-58
2022/06/03 13:18:13;;;;;;;;;;;;;;;38.09;32.36;99863.72;5033655;28;846;-58
2022/06/03 13:20:42;;;;;;;;;;;;;;;37.40;32.41;99858.66;5033291;28;929;-58
2022/06/03 13:23:20;;;;;;;;;;;;;;;37.37;32.83;99851.22;5033316;28;855;-58
2022/06/03 13:25:47;;;;;;;;;;;;;;;37.11;32.82;99855.50;5033128;28;1201;-57
2022/06/03 13:28:31;;;;;;;;;;;;;;;37.07;33.25;99855.88;5033113;28;1935;-57
2022/06/03 13:31:02;;;;;;;;;;;;;;;36.89;33.36;99855.03;5033011;28;1226;-58
2022/06/03 13:33:29;;;;;;;;;;;;;;;35.99;34.86;99850.69;5033253;28;815;-58
2022/06/03 13:35:59;;;;;;;;;;;;;;;35.73;35.06;99863.44;5033072;28;1026;-58
2022/06/03 13:38:38;;;;;;;;;;;;;;;35.63;34.67;99856.72;5033016;28;930;-58
2022/06/03 13:44:38;;;;;;;;;;;;;;;36.05;34.25;99858.38;4998763;28;1443;-58
2022/06/03 13:47:06;;;;;;;;;;;;;;;35.98;34.57;99868.56;5032903;28;850;-58
2022/06/03 13:49:34;;;;;;;;;;;;;;;35.33;34.14;99866.94;5032699;28;1918;-58
2022/06/03 13:52:09;;;;;;;;;;;;;;;35.02;35.14;99859.66;5032809;28;791;-58
2022/06/03 13:54:41;;;;;;;;;;;;;;;34.93;34.64;99866.72;5032583;28;851;-58
2022/06/03 13:57:13;;;;;;;;;;;;;;;34.70;35.19;99864.59;5032520;28;866;-58
2022/06/03 13:59:41;;;;;;;;;;;;;;;34.85;35.55;99860.22;5032594;28;807;-58
2022/06/03 14:02:18;;;;;;;;;;;;;;;35.02;35.76;99854.66;5032589;28;1006;-58
2022/06/03 14:04:50;;;;;;;;;;;;;;;35.27;36.11;99854.09;5032470;28;880;-58
2022/06/03 14:07:23;;;;;;;;;;;;;;;35.48;36.41;99848.16;5032526;28;798;-58
2022/06/03 14:09:52;;;;;;;;;;;;;;;35.17;36.15;99845.31;5032223;28;1890;-58
2022/06/03 14:12:24;;;;;;;;;;;;;;;34.76;37.55;99847.19;5032369;28;803;-58
2022/06/03 14:17:59;;;;;;;;;;;;;;;33.44;40.23;99842.19;5032340;28;676;-58
2022/06/03 14:20:34;;;;;;;;;;;;;;;32.90;41.37;99849.56;5032511;28;885;-57
2022/06/03 14:23:08;;;;;;;;;;;;;;;32.43;42.93;99836.09;5014564;28;1485;-57
2022/06/03 14:25:38;;;;;;;;;;;;;;;31.87;44.13;99838.06;5032080;28;815;-56
2022/06/03 14:28:12;;;;;;;;;;;;;;;30.98;46.05;99842.03;5032018;28;1894;-58
2022/06/03 14:30:39;;;;;;;;;;;;;;;30.76;47.06;99837.44;5032014;28;1661;-58
2022/06/03 14:33:08;;;;;;;;;;;;;;;30.48;48.17;99846.44;5032101;28;854;-57
2022/06/03 14:47:49;;;;;;;;;;;;;;;30.65;49.90;99851.88;5032654;28;672;-57
2022/06/03 14:50:23;;;;;;;;;;;;;;;30.56;50.46;99850.22;5031860;28;1914;-58
2022/06/03 14:52:53;;;;;;;;;;;;;;;30.73;50.20;99849.94;5031729;28;858;-57
2022/06/03 14:55:24;;;;;;;;;;;;;;;30.81;49.24;99850.88;5031645;28;1029;-58
2022/06/03 14:58:03;;;;;;;;;;;;;;;30.87;49.92;99845.06;5031647;28;886;-58
2022/06/03 15:00:39;;;;;;;;;;;;;;;31.16;49.58;99842.53;5031731;28;1052;-57
2022/06/03 15:03:12;;;;;;;;;;;;;;;30.78;50.03;99845.47;5031678;28;823;-58
2022/06/03 15:05:50;;;;;;;;;;;;;;;30.87;50.49;99850.78;5031475;28;950;-58
2022/06/03 15:08:23;;;;;;;;;;;;;;;30.81;50.76;99858.63;5031555;28;1881;-58
2022/06/03 15:11:20;;;;;;;;;;;;;;;31.13;50.28;99850.88;5031438;28;917;-58
2022/06/03 15:13:48;;;;;;;;;;;;;;;31.82;49.72;99861.81;5015099;28;1340;-57
2022/06/03 15:16:15;;;;;;;;;;;;;;;31.98;48.19;99862.78;5031650;28;807;-57
2022/06/03 15:18:43;;;;;;;;;;;;;;;31.61;49.02;99867.44;5031365;28;871;-58
2022/06/03 15:21:15;;;;;;;;;;;;;;;31.27;49.60;99865.16;5034018;28;866;-58
2022/06/03 15:23:44;;;;;;;;;;;;;;;31.10;50.26;99871.16;5035492;28;894;-58
2022/06/03 15:26:15;;;;;;;;;;;;;;;31.08;49.60;99866.00;5035412;28;855;-57
2022/06/03 15:28:48;;;;;;;;;;;;;;;30.76;49.93;99870.91;5035431;28;1945;-56
2022/06/03 15:31:18;;;;;;;;;;;;;;;30.51;49.75;99874.66;5035245;28;1284;-58
2022/06/03 15:33:51;;;;;;;;;;;;;;;30.19;51.12;99885.94;5035320;28;922;-58